sensor_id;sensor_type;location;lat;lon;timestamp;temperature;humidity
23347;DHT22;36852;45.466;11.066;2023-04-19T00:00:12;17.30;88.10
23347;DHT22;36852;45.466;11.066;2023-04-19T00:02:41;17.30;88.20
23347;DHT22;36852;45.466;11.066;2023-04-19T00:05:09;17.30;88.50
23347;DHT22;36852;45.466;11.066;2023-04-19T00:07:39;17.30;88.70
23347;DHT22;36852;45.466;11.066;2023-04-19T00:10:10;17.30;88.90
23347;DHT22;36852;45.466;11.066;2023-04-19T00:12:41;17.30;89.10
23347;DHT22;36852;45.466;11.066;2023-04-19T00:15:10;17.30;89.30
23347;DHT22;36852;45.466;11.066;2023-04-19T00:17:41;17.40;89.50
23347;DHT22;36852;45.466;11.066;2023-04-19T00:20:10;17.30;89.60
23347;DHT22;36852;45.466;11.066;2023-04-19T00:22:39;17.30;89.90
23347;DHT22;36852;45.466;11.066;2023-04-19T00:25:07;17.30;90.00
23347;DHT22;36852;45.466;11.066;2023-04-19T00:27:35;17.30;90.00
23347;DHT22;36852;45.466;11.066;2023-04-19T00:30:05;17.30;90.10
23347;DHT22;36852;45.466;11.066;2023-04-19T00:32:33;17.40;90.70
23347;DHT22;36852;45.466;11.066;2023-04-19T00:35:03;17.40;90.50
23347;DHT22;36852;45.466;11.066;2023-04-19T00:37:31;17.30;90.50
23347;DHT22;36852;45.466;11.066;2023-04-19T00:39:59;17.30;90.70
23347;DHT22;36852;45.466;11.066;2023-04-19T00:42:28;17.30;90.80
23347;DHT22;36852;45.466;11.066;2023-04-19T00:44:57;17.30;90.80
23347;DHT22;36852;45.466;11.066;2023-04-19T00:47:25;17.30;90.90
23347;DHT22;36852;45.466;11.066;2023-04-19T00:49:52;17.30;91.00
23347;DHT22;36852;45.466;11.066;2023-04-19T00:52:21;17.40;91.10
23347;DHT22;36852;45.466;11.066;2023-04-19T00:54:49;17.30;91.20
23347;DHT22;36852;45.466;11.066;2023-04-19T00:57:19;17.40;91.30
23347;DHT22;36852;45.466;11.066;2023-04-19T00:59:50;17.40;91.30
23347;DHT22;36852;45.466;11.066;2023-04-19T01:02:17;17.40;91.30
23347;DHT22;36852;45.466;11.066;2023-04-19T01:04:49;17.40;91.40
23347;DHT22;36852;45.466;11.066;2023-04-19T01:07:18;17.40;91.50
23347;DHT22;36852;45.466;11.066;2023-04-19T01:09:46;17.40;91.60
23347;DHT22;36852;45.466;11.066;2023-04-19T01:12:13;17.40;91.80
23347;DHT22;36852;45.466;11.066;2023-04-19T01:14:42;17.40;91.80
23347;DHT22;36852;45.466;11.066;2023-04-19T01:17:11;17.40;92.00
23347;DHT22;36852;45.466;11.066;2023-04-19T01:19:41;17.40;92.20
23347;DHT22;36852;45.466;11.066;2023-04-19T01:22:19;17.40;92.30
23347;DHT22;36852;45.466;11.066;2023-04-19T01:24:48;17.30;92.60
23347;DHT22;36852;45.466;11.066;2023-04-19T01:27:16;17.20;92.80
23347;DHT22;36852;45.466;11.066;2023-04-19T01:29:46;17.20;93.10
23347;DHT22;36852;45.466;11.066;2023-04-19T01:32:14;17.20;93.00
23347;DHT22;36852;45.466;11.066;2023-04-19T01:34:43;17.20;93.10
23347;DHT22;36852;45.466;11.066;2023-04-19T01:37:11;17.20;93.10
23347;DHT22;36852;45.466;11.066;2023-04-19T01:39:40;17.20;93.20
23347;DHT22;36852;45.466;11.066;2023-04-19T01:42:08;17.30;93.10
23347;DHT22;36852;45.466;11.066;2023-04-19T01:44:36;17.30;93.30
23347;DHT22;36852;45.466;11.066;2023-04-19T01:47:04;17.30;93.80
23347;DHT22;36852;45.466;11.066;2023-04-19T01:49:32;17.30;93.50
23347;DHT22;36852;45.466;11.066;2023-04-19T01:51:59;17.30;93.70
23347;DHT22;36852;45.466;11.066;2023-04-19T01:54:27;17.30;93.80
23347;DHT22;36852;45.466;11.066;2023-04-19T01:56:55;17.30;93.80
23347;DHT22;36852;45.466;11.066;2023-04-19T01:59:23;17.30;93.80
23347;DHT22;36852;45.466;11.066;2023-04-19T02:01:51;17.30;93.70
23347;DHT22;36852;45.466;11.066;2023-04-19T02:04:20;17.30;93.80
23347;DHT22;36852;45.466;11.066;2023-04-19T02:06:48;17.30;93.70
23347;DHT22;36852;45.466;11.066;2023-04-19T02:09:16;17.30;93.80
23347;DHT22;36852;45.466;11.066;2023-04-19T02:11:44;17.30;93.90
23347;DHT22;36852;45.466;11.066;2023-04-19T02:14:12;17.30;94.10
23347;DHT22;36852;45.466;11.066;2023-04-19T02:16:42;17.30;94.10
23347;DHT22;36852;45.466;11.066;2023-04-19T02:19:10;17.30;94.20
23347;DHT22;36852;45.466;11.066;2023-04-19T02:21:39;17.30;94.10
23347;DHT22;36852;45.466;11.066;2023-04-19T02:24:18;17.30;94.20
23347;DHT22;36852;45.466;11.066;2023-04-19T02:26:45;17.30;94.40
23347;DHT22;36852;45.466;11.066;2023-04-19T02:29:14;17.30;94.40
23347;DHT22;36852;45.466;11.066;2023-04-19T02:31:46;17.30;94.40
23347;DHT22;36852;45.466;11.066;2023-04-19T02:34:13;17.30;94.30
23347;DHT22;36852;45.466;11.066;2023-04-19T02:36:41;17.30;94.40
23347;DHT22;36852;45.466;11.066;2023-04-19T02:39:09;17.30;94.40
23347;DHT22;36852;45.466;11.066;2023-04-19T02:41:37;17.30;94.30
23347;DHT22;36852;45.466;11.066;2023-04-19T02:44:05;17.30;94.40
23347;DHT22;36852;45.466;11.066;2023-04-19T02:46:33;17.30;94.60
23347;DHT22;36852;45.466;11.066;2023-04-19T02:49:01;17.30;94.70
23347;DHT22;36852;45.466;11.066;2023-04-19T02:51:29;17.30;94.70
23347;DHT22;36852;45.466;11.066;2023-04-19T02:53:57;17.30;94.90
23347;DHT22;36852;45.466;11.066;2023-04-19T02:56:26;17.30;94.80
23347;DHT22;36852;45.466;11.066;2023-04-19T02:58:54;17.30;94.70
23347;DHT22;36852;45.466;11.066;2023-04-19T03:01:26;17.30;94.80
23347;DHT22;36852;45.466;11.066;2023-04-19T03:03:53;17.20;94.90
23347;DHT22;36852;45.466;11.066;2023-04-19T03:06:21;17.20;95.00
23347;DHT22;36852;45.466;11.066;2023-04-19T03:08:49;17.20;95.00
23347;DHT22;36852;45.466;11.066;2023-04-19T03:11:18;17.20;95.00
23347;DHT22;36852;45.466;11.066;2023-04-19T03:13:46;17.20;95.10
23347;DHT22;36852;45.466;11.066;2023-04-19T03:16:14;17.20;95.20
23347;DHT22;36852;45.466;11.066;2023-04-19T03:18:42;17.20;95.40
23347;DHT22;36852;45.466;11.066;2023-04-19T03:21:11;17.10;95.30
23347;DHT22;36852;45.466;11.066;2023-04-19T03:23:41;17.10;95.30
23347;DHT22;36852;45.466;11.066;2023-04-19T03:26:10;17.10;95.40
23347;DHT22;36852;45.466;11.066;2023-04-19T03:28:40;17.10;95.50
23347;DHT22;36852;45.466;11.066;2023-04-19T03:31:16;17.10;95.60
23347;DHT22;36852;45.466;11.066;2023-04-19T03:33:45;17.10;95.60
23347;DHT22;36852;45.466;11.066;2023-04-19T03:36:14;17.00;95.80
23347;DHT22;36852;45.466;11.066;2023-04-19T03:38:43;17.00;95.80
23347;DHT22;36852;45.466;11.066;2023-04-19T03:41:25;17.00;95.90
23347;DHT22;36852;45.466;11.066;2023-04-19T03:43:52;17.00;96.00
23347;DHT22;36852;45.466;11.066;2023-04-19T03:46:22;17.00;96.00
23347;DHT22;36852;45.466;11.066;2023-04-19T03:48:53;17.00;96.10
23347;DHT22;36852;45.466;11.066;2023-04-19T03:51:22;16.90;96.10
23347;DHT22;36852;45.466;11.066;2023-04-19T03:53:50;16.90;95.90
23347;DHT22;36852;45.466;11.066;2023-04-19T03:56:18;16.90;96.40
23347;DHT22;36852;45.466;11.066;2023-04-19T03:58:46;16.90;96.40
23347;DHT22;36852;45.466;11.066;2023-04-19T04:01:20;16.80;96.60
23347;DHT22;36852;45.466;11.066;2023-04-19T04:03:48;16.80;96.90
23347;DHT22;36852;45.466;11.066;2023-04-19T04:06:17;16.80;96.80
23347;DHT22;36852;45.466;11.066;2023-04-19T04:08:45;16.80;97.20
23347;DHT22;36852;45.466;11.066;2023-04-19T04:11:13;16.80;96.80
23347;DHT22;36852;45.466;11.066;2023-04-19T04:13:42;16.70;97.00
23347;DHT22;36852;45.466;11.066;2023-04-19T04:16:14;16.70;97.20
23347;DHT22;36852;45.466;11.066;2023-04-19T04:18:42;16.70;97.20
23347;DHT22;36852;45.466;11.066;2023-04-19T04:21:15;16.60;97.20
23347;DHT22;36852;45.466;11.066;2023-04-19T04:23:44;16.60;97.30
23347;DHT22;36852;45.466;11.066;2023-04-19T04:26:14;16.60;97.30
23347;DHT22;36852;45.466;11.066;2023-04-19T04:29:00;16.70;97.40
23347;DHT22;36852;45.466;11.066;2023-04-19T04:31:31;16.60;97.40
23347;DHT22;36852;45.466;11.066;2023-04-19T04:33:59;16.60;97.50
23347;DHT22;36852;45.466;11.066;2023-04-19T04:36:27;16.60;97.60
23347;DHT22;36852;45.466;11.066;2023-04-19T04:38:57;16.50;97.50
23347;DHT22;36852;45.466;11.066;2023-04-19T04:41:25;16.50;97.70
23347;DHT22;36852;45.466;11.066;2023-04-19T04:43:54;16.50;97.70
23347;DHT22;36852;45.466;11.066;2023-04-19T04:46:23;16.50;97.80
23347;DHT22;36852;45.466;11.066;2023-04-19T04:48:52;16.60;97.90
23347;DHT22;36852;45.466;11.066;2023-04-19T04:51:24;16.60;98.70
23347;DHT22;36852;45.466;11.066;2023-04-19T04:53:53;16.60;98.20
23347;DHT22;36852;45.466;11.066;2023-04-19T04:56:20;16.60;98.10
23347;DHT22;36852;45.466;11.066;2023-04-19T04:58:49;16.50;98.00
23347;DHT22;36852;45.466;11.066;2023-04-19T05:01:19;16.50;98.00
23347;DHT22;36852;45.466;11.066;2023-04-19T05:03:47;16.50;98.10
23347;DHT22;36852;45.466;11.066;2023-04-19T05:06:18;16.50;98.20
23347;DHT22;36852;45.466;11.066;2023-04-19T05:08:46;16.50;98.30
23347;DHT22;36852;45.466;11.066;2023-04-19T05:11:16;16.50;98.40
23347;DHT22;36852;45.466;11.066;2023-04-19T05:13:45;16.50;98.40
23347;DHT22;36852;45.466;11.066;2023-04-19T05:16:13;16.50;98.60
23347;DHT22;36852;45.466;11.066;2023-04-19T05:18:43;16.50;98.60
23347;DHT22;36852;45.466;11.066;2023-04-19T05:21:12;16.50;98.90
23347;DHT22;36852;45.466;11.066;2023-04-19T05:23:40;16.50;99.20
23347;DHT22;36852;45.466;11.066;2023-04-19T05:26:08;16.60;99.00
23347;DHT22;36852;45.466;11.066;2023-04-19T05:28:39;16.60;98.90
23347;DHT22;36852;45.466;11.066;2023-04-19T05:31:11;16.60;98.90
23347;DHT22;36852;45.466;11.066;2023-04-19T05:33:41;16.60;99.10
23347;DHT22;36852;45.466;11.066;2023-04-19T05:36:09;16.60;99.10
23347;DHT22;36852;45.466;11.066;2023-04-19T05:38:39;16.60;99.00
23347;DHT22;36852;45.466;11.066;2023-04-19T05:41:07;16.60;99.00
23347;DHT22;36852;45.466;11.066;2023-04-19T05:43:35;16.70;99.20
23347;DHT22;36852;45.466;11.066;2023-04-19T05:46:03;16.70;99.60
23347;DHT22;36852;45.466;11.066;2023-04-19T05:48:31;16.70;99.70
23347;DHT22;36852;45.466;11.066;2023-04-19T05:53:53;16.80;99.90
23347;DHT22;36852;45.466;11.066;2023-04-19T05:56:22;16.80;99.80
23347;DHT22;36852;45.466;11.066;2023-04-19T05:58:50;16.80;99.90
23347;DHT22;36852;45.466;11.066;2023-04-19T06:01:17;16.90;99.90
23347;DHT22;36852;45.466;11.066;2023-04-19T06:03:45;16.90;99.90
23347;DHT22;36852;45.466;11.066;2023-04-19T06:06:14;16.90;99.90
23347;DHT22;36852;45.466;11.066;2023-04-19T06:08:43;17.00;99.90
23347;DHT22;36852;45.466;11.066;2023-04-19T06:11:14;17.10;99.90
23347;DHT22;36852;45.466;11.066;2023-04-19T06:13:44;17.20;99.90
23347;DHT22;36852;45.466;11.066;2023-04-19T06:16:13;17.30;99.90
23347;DHT22;36852;45.466;11.066;2023-04-19T06:18:40;17.30;99.90
23347;DHT22;36852;45.466;11.066;2023-04-19T06:21:12;17.40;99.90
23347;DHT22;36852;45.466;11.066;2023-04-19T06:23:40;17.50;99.80
23347;DHT22;36852;45.466;11.066;2023-04-19T06:26:09;17.60;99.80
23347;DHT22;36852;45.466;11.066;2023-04-19T06:28:37;17.70;99.80
23347;DHT22;36852;45.466;11.066;2023-04-19T06:31:06;17.70;99.60
23347;DHT22;36852;45.466;11.066;2023-04-19T06:33:33;17.80;99.20
23347;DHT22;36852;45.466;11.066;2023-04-19T06:36:01;17.80;98.70
23347;DHT22;36852;45.466;11.066;2023-04-19T06:38:30;17.80;98.50
23347;DHT22;36852;45.466;11.066;2023-04-19T06:41:17;17.90;98.30
23347;DHT22;36852;45.466;11.066;2023-04-19T06:43:46;18.00;98.00
23347;DHT22;36852;45.466;11.066;2023-04-19T06:46:14;18.10;97.30
23347;DHT22;36852;45.466;11.066;2023-04-19T06:48:42;18.10;96.60
23347;DHT22;36852;45.466;11.066;2023-04-19T06:51:10;18.20;96.30
23347;DHT22;36852;45.466;11.066;2023-04-19T06:53:39;18.20;96.00
23347;DHT22;36852;45.466;11.066;2023-04-19T06:56:07;18.30;95.50
23347;DHT22;36852;45.466;11.066;2023-04-19T06:58:36;18.30;95.00
23347;DHT22;36852;45.466;11.066;2023-04-19T07:01:04;18.30;94.90
23347;DHT22;36852;45.466;11.066;2023-04-19T07:03:32;18.40;94.50
23347;DHT22;36852;45.466;11.066;2023-04-19T07:06:00;18.40;94.40
23347;DHT22;36852;45.466;11.066;2023-04-19T07:08:28;18.40;94.40
23347;DHT22;36852;45.466;11.066;2023-04-19T07:10:58;18.50;94.30
23347;DHT22;36852;45.466;11.066;2023-04-19T07:13:26;18.50;94.00
23347;DHT22;36852;45.466;11.066;2023-04-19T07:15:54;18.60;93.80
23347;DHT22;36852;45.466;11.066;2023-04-19T07:18:22;18.60;93.10
23347;DHT22;36852;45.466;11.066;2023-04-19T07:20:51;18.70;93.00
23347;DHT22;36852;45.466;11.066;2023-04-19T07:23:20;18.70;93.10
23347;DHT22;36852;45.466;11.066;2023-04-19T07:25:48;18.70;93.30
23347;DHT22;36852;45.466;11.066;2023-04-19T07:28:15;18.80;92.90
23347;DHT22;36852;45.466;11.066;2023-04-19T07:30:43;18.80;92.90
23347;DHT22;36852;45.466;11.066;2023-04-19T07:33:12;18.80;92.80
23347;DHT22;36852;45.466;11.066;2023-04-19T07:35:39;18.90;92.60
23347;DHT22;36852;45.466;11.066;2023-04-19T07:38:07;18.90;92.60
23347;DHT22;36852;45.466;11.066;2023-04-19T07:40:36;18.90;91.90
23347;DHT22;36852;45.466;11.066;2023-04-19T07:43:04;18.80;91.50
23347;DHT22;36852;45.466;11.066;2023-04-19T07:45:34;18.70;91.80
23347;DHT22;36852;45.466;11.066;2023-04-19T07:48:03;18.70;92.30
23347;DHT22;36852;45.466;11.066;2023-04-19T07:50:30;18.70;92.00
23347;DHT22;36852;45.466;11.066;2023-04-19T07:52:58;18.70;92.10
23347;DHT22;36852;45.466;11.066;2023-04-19T07:55:26;18.80;92.10
23347;DHT22;36852;45.466;11.066;2023-04-19T07:57:54;18.70;91.70
23347;DHT22;36852;45.466;11.066;2023-04-19T08:00:23;18.60;91.90
23347;DHT22;36852;45.466;11.066;2023-04-19T08:02:50;18.60;92.00
23347;DHT22;36852;45.466;11.066;2023-04-19T08:05:18;18.70;91.60
23347;DHT22;36852;45.466;11.066;2023-04-19T08:07:47;18.70;91.70
23347;DHT22;36852;45.466;11.066;2023-04-19T08:10:17;18.80;91.20
23347;DHT22;36852;45.466;11.066;2023-04-19T08:12:45;18.80;91.70
23347;DHT22;36852;45.466;11.066;2023-04-19T08:15:14;18.90;91.60
23347;DHT22;36852;45.466;11.066;2023-04-19T08:17:44;19.00;91.90
23347;DHT22;36852;45.466;11.066;2023-04-19T08:20:12;19.10;91.40
23347;DHT22;36852;45.466;11.066;2023-04-19T08:22:40;19.10;90.70
23347;DHT22;36852;45.466;11.066;2023-04-19T08:25:08;19.20;90.20
23347;DHT22;36852;45.466;11.066;2023-04-19T08:27:38;19.20;90.30
23347;DHT22;36852;45.466;11.066;2023-04-19T08:30:10;19.30;90.40
23347;DHT22;36852;45.466;11.066;2023-04-19T08:32:38;19.40;89.60
23347;DHT22;36852;45.466;11.066;2023-04-19T08:35:07;19.40;89.40
23347;DHT22;36852;45.466;11.066;2023-04-19T08:37:36;19.50;89.70
23347;DHT22;36852;45.466;11.066;2023-04-19T08:40:04;19.60;89.60
23347;DHT22;36852;45.466;11.066;2023-04-19T08:42:33;19.60;89.30
23347;DHT22;36852;45.466;11.066;2023-04-19T08:45:03;19.60;88.80
23347;DHT22;36852;45.466;11.066;2023-04-19T08:47:35;19.70;88.80
23347;DHT22;36852;45.466;11.066;2023-04-19T08:50:06;19.80;89.40
23347;DHT22;36852;45.466;11.066;2023-04-19T08:52:36;19.80;89.50
23347;DHT22;36852;45.466;11.066;2023-04-19T08:55:07;19.80;89.30
23347;DHT22;36852;45.466;11.066;2023-04-19T08:57:35;19.70;88.00
23347;DHT22;36852;45.466;11.066;2023-04-19T09:00:04;19.60;88.20
23347;DHT22;36852;45.466;11.066;2023-04-19T09:02:50;19.50;89.40
23347;DHT22;36852;45.466;11.066;2023-04-19T09:05:19;19.50;89.10
23347;DHT22;36852;45.466;11.066;2023-04-19T09:07:47;19.60;90.00
23347;DHT22;36852;45.466;11.066;2023-04-19T09:10:18;19.60;90.10
23347;DHT22;36852;45.466;11.066;2023-04-19T09:13:03;19.60;88.10
23347;DHT22;36852;45.466;11.066;2023-04-19T09:15:40;19.70;87.70
23347;DHT22;36852;45.466;11.066;2023-04-19T09:18:09;19.70;87.60
23347;DHT22;36852;45.466;11.066;2023-04-19T09:20:39;19.70;88.50
23347;DHT22;36852;45.466;11.066;2023-04-19T09:23:09;19.70;88.80
23347;DHT22;36852;45.466;11.066;2023-04-19T09:25:50;19.80;88.90
23347;DHT22;36852;45.466;11.066;2023-04-19T09:28:15;19.80;89.00
23347;DHT22;36852;45.466;11.066;2023-04-19T09:30:44;19.90;89.60
23347;DHT22;36852;45.466;11.066;2023-04-19T09:33:32;20.00;89.40
23347;DHT22;36852;45.466;11.066;2023-04-19T09:36:01;19.80;89.10
23347;DHT22;36852;45.466;11.066;2023-04-19T09:38:29;19.80;89.30
23347;DHT22;36852;45.466;11.066;2023-04-19T09:41:07;19.80;88.20
23347;DHT22;36852;45.466;11.066;2023-04-19T09:43:35;19.80;88.60
23347;DHT22;36852;45.466;11.066;2023-04-19T09:46:05;19.80;88.50
23347;DHT22;36852;45.466;11.066;2023-04-19T09:48:32;19.90;88.80
23347;DHT22;36852;45.466;11.066;2023-04-19T09:51:00;19.90;89.70
23347;DHT22;36852;45.466;11.066;2023-04-19T09:53:30;19.90;89.90
23347;DHT22;36852;45.466;11.066;2023-04-19T09:56:02;19.90;89.60
23347;DHT22;36852;45.466;11.066;2023-04-19T09:58:32;19.90;89.80
23347;DHT22;36852;45.466;11.066;2023-04-19T10:01:03;20.00;89.80
23347;DHT22;36852;45.466;11.066;2023-04-19T10:03:33;20.00;89.30
23347;DHT22;36852;45.466;11.066;2023-04-19T10:06:02;20.10;90.60
23347;DHT22;36852;45.466;11.066;2023-04-19T10:08:32;20.10;90.70
23347;DHT22;36852;45.466;11.066;2023-04-19T10:10:59;20.20;90.70
23347;DHT22;36852;45.466;11.066;2023-04-19T10:13:27;20.30;90.70
23347;DHT22;36852;45.466;11.066;2023-04-19T10:15:55;20.30;90.60
23347;DHT22;36852;45.466;11.066;2023-04-19T10:18:25;20.40;90.80
23347;DHT22;36852;45.466;11.066;2023-04-19T10:20:57;20.50;90.60
23347;DHT22;36852;45.466;11.066;2023-04-19T10:23:27;20.50;89.00
23347;DHT22;36852;45.466;11.066;2023-04-19T10:28:46;20.60;91.00
23347;DHT22;36852;45.466;11.066;2023-04-19T10:31:14;20.60;89.50
23347;DHT22;36852;45.466;11.066;2023-04-19T10:33:42;20.60;89.20
23347;DHT22;36852;45.466;11.066;2023-04-19T10:36:29;20.60;89.10
23347;DHT22;36852;45.466;11.066;2023-04-19T10:38:58;20.60;88.50
23347;DHT22;36852;45.466;11.066;2023-04-19T10:41:55;20.70;89.00
23347;DHT22;36852;45.466;11.066;2023-04-19T10:49:03;20.60;90.50
23347;DHT22;36852;45.466;11.066;2023-04-19T10:51:33;20.70;91.00
23347;DHT22;36852;45.466;11.066;2023-04-19T10:54:03;20.60;90.70
23347;DHT22;36852;45.466;11.066;2023-04-19T10:59:13;20.70;91.00
23347;DHT22;36852;45.466;11.066;2023-04-19T11:07:02;20.80;89.40
23347;DHT22;36852;45.466;11.066;2023-04-19T11:09:43;20.90;87.90
23347;DHT22;36852;45.466;11.066;2023-04-19T11:12:12;20.80;85.10
23347;DHT22;36852;45.466;11.066;2023-04-19T11:14:46;20.70;84.30
23347;DHT22;36852;45.466;11.066;2023-04-19T11:17:16;20.60;84.90
23347;DHT22;36852;45.466;11.066;2023-04-19T11:19:57;20.60;87.30
23347;DHT22;36852;45.466;11.066;2023-04-19T11:22:34;20.70;88.60
23347;DHT22;36852;45.466;11.066;2023-04-19T11:30:29;21.00;85.00
23347;DHT22;36852;45.466;11.066;2023-04-19T11:32:59;21.10;84.20
23347;DHT22;36852;45.466;11.066;2023-04-19T11:35:28;21.00;82.00
23347;DHT22;36852;45.466;11.066;2023-04-19T11:37:58;20.90;81.20
23347;DHT22;36852;45.466;11.066;2023-04-19T11:40:26;20.90;81.60
23347;DHT22;36852;45.466;11.066;2023-04-19T11:43:01;21.00;82.00
23347;DHT22;36852;45.466;11.066;2023-04-19T11:45:32;21.00;81.00
23347;DHT22;36852;45.466;11.066;2023-04-19T11:48:03;21.10;80.70
23347;DHT22;36852;45.466;11.066;2023-04-19T11:50:37;21.20;82.20
23347;DHT22;36852;45.466;11.066;2023-04-19T11:53:12;21.40;80.90
23347;DHT22;36852;45.466;11.066;2023-04-19T11:55:47;21.50;81.30
23347;DHT22;36852;45.466;11.066;2023-04-19T11:58:27;21.60;82.90
23347;DHT22;36852;45.466;11.066;2023-04-19T12:00:52;21.70;80.00
23347;DHT22;36852;45.466;11.066;2023-04-19T12:03:22;21.70;79.60
23347;DHT22;36852;45.466;11.066;2023-04-19T12:05:58;21.80;78.80
23347;DHT22;36852;45.466;11.066;2023-04-19T12:08:29;21.70;77.90
23347;DHT22;36852;45.466;11.066;2023-04-19T12:10:59;21.70;77.90
23347;DHT22;36852;45.466;11.066;2023-04-19T12:13:26;21.80;77.90
23347;DHT22;36852;45.466;11.066;2023-04-19T12:15:54;21.90;77.70
23347;DHT22;36852;45.466;11.066;2023-04-19T12:18:24;21.80;76.70
23347;DHT22;36852;45.466;11.066;2023-04-19T12:20:52;21.80;77.50
23347;DHT22;36852;45.466;11.066;2023-04-19T12:23:20;21.90;79.30
23347;DHT22;36852;45.466;11.066;2023-04-19T12:25:48;21.90;77.90
23347;DHT22;36852;45.466;11.066;2023-04-19T12:28:19;21.90;76.80
23347;DHT22;36852;45.466;11.066;2023-04-19T12:30:47;21.90;78.60
23347;DHT22;36852;45.466;11.066;2023-04-19T12:33:15;21.90;78.30
23347;DHT22;36852;45.466;11.066;2023-04-19T12:35:42;21.90;77.90
23347;DHT22;36852;45.466;11.066;2023-04-19T12:38:12;21.90;77.20
23347;DHT22;36852;45.466;11.066;2023-04-19T12:40:40;22.00;77.50
23347;DHT22;36852;45.466;11.066;2023-04-19T12:43:11;22.10;77.80
23347;DHT22;36852;45.466;11.066;2023-04-19T12:45:39;22.20;78.10
23347;DHT22;36852;45.466;11.066;2023-04-19T12:48:07;22.40;75.20
23347;DHT22;36852;45.466;11.066;2023-04-19T12:50:35;22.60;76.40
23347;DHT22;36852;45.466;11.066;2023-04-19T12:53:03;22.70;74.80
23347;DHT22;36852;45.466;11.066;2023-04-19T12:55:31;22.90;75.00
23347;DHT22;36852;45.466;11.066;2023-04-19T12:58:00;23.10;75.50
23347;DHT22;36852;45.466;11.066;2023-04-19T13:00:28;23.20;72.40
23347;DHT22;36852;45.466;11.066;2023-04-19T13:02:56;23.10;70.50
23347;DHT22;36852;45.466;11.066;2023-04-19T13:05:25;23.00;70.10
23347;DHT22;36852;45.466;11.066;2023-04-19T13:07:54;23.10;69.40
23347;DHT22;36852;45.466;11.066;2023-04-19T13:10:21;23.20;70.30
23347;DHT22;36852;45.466;11.066;2023-04-19T13:12:49;23.30;70.00
23347;DHT22;36852;45.466;11.066;2023-04-19T13:15:17;23.40;66.40
23347;DHT22;36852;45.466;11.066;2023-04-19T13:17:46;23.30;65.30
23347;DHT22;36852;45.466;11.066;2023-04-19T13:20:14;23.20;65.30
23347;DHT22;36852;45.466;11.066;2023-04-19T13:22:47;23.00;67.40
23347;DHT22;36852;45.466;11.066;2023-04-19T13:25:15;23.00;66.40
23347;DHT22;36852;45.466;11.066;2023-04-19T13:27:43;22.80;66.60
23347;DHT22;36852;45.466;11.066;2023-04-19T13:30:14;22.70;69.50
23347;DHT22;36852;45.466;11.066;2023-04-19T13:32:42;22.60;73.50
23347;DHT22;36852;45.466;11.066;2023-04-19T13:35:10;22.60;76.20
23347;DHT22;36852;45.466;11.066;2023-04-19T13:37:37;22.60;76.90
23347;DHT22;36852;45.466;11.066;2023-04-19T13:40:07;22.50;78.50
23347;DHT22;36852;45.466;11.066;2023-04-19T13:42:37;22.50;78.70
23347;DHT22;36852;45.466;11.066;2023-04-19T13:45:05;22.50;79.90
23347;DHT22;36852;45.466;11.066;2023-04-19T13:47:34;22.50;79.90
23347;DHT22;36852;45.466;11.066;2023-04-19T13:50:02;22.50;80.60
23347;DHT22;36852;45.466;11.066;2023-04-19T13:52:30;22.50;81.20
23347;DHT22;36852;45.466;11.066;2023-04-19T13:54:58;22.40;82.40
23347;DHT22;36852;45.466;11.066;2023-04-19T13:57:30;22.40;82.20
23347;DHT22;36852;45.466;11.066;2023-04-19T13:59:58;22.40;82.10
23347;DHT22;36852;45.466;11.066;2023-04-19T14:02:27;22.40;82.20
23347;DHT22;36852;45.466;11.066;2023-04-19T14:04:54;22.30;82.40
23347;DHT22;36852;45.466;11.066;2023-04-19T14:07:25;22.30;82.40
23347;DHT22;36852;45.466;11.066;2023-04-19T14:09:53;22.30;82.40
23347;DHT22;36852;45.466;11.066;2023-04-19T14:12:21;22.20;82.60
23347;DHT22;36852;45.466;11.066;2023-04-19T14:14:49;22.20;82.80
23347;DHT22;36852;45.466;11.066;2023-04-19T14:17:17;22.20;82.90
23347;DHT22;36852;45.466;11.066;2023-04-19T14:19:46;22.10;83.50
23347;DHT22;36852;45.466;11.066;2023-04-19T14:22:17;22.10;83.60
23347;DHT22;36852;45.466;11.066;2023-04-19T14:24:48;22.10;83.40
23347;DHT22;36852;45.466;11.066;2023-04-19T14:27:16;22.10;83.50
23347;DHT22;36852;45.466;11.066;2023-04-19T14:29:43;22.10;84.00
23347;DHT22;36852;45.466;11.066;2023-04-19T14:32:15;22.10;84.00
23347;DHT22;36852;45.466;11.066;2023-04-19T14:34:45;22.20;84.90
23347;DHT22;36852;45.466;11.066;2023-04-19T14:37:13;22.50;86.00
23347;DHT22;36852;45.466;11.066;2023-04-19T14:39:41;22.90;86.40
23347;DHT22;36852;45.466;11.066;2023-04-19T14:42:09;23.30;85.40
23347;DHT22;36852;45.466;11.066;2023-04-19T14:44:37;23.90;84.80
23347;DHT22;36852;45.466;11.066;2023-04-19T14:47:05;24.40;80.90
23347;DHT22;36852;45.466;11.066;2023-04-19T14:49:33;24.90;77.70
23347;DHT22;36852;45.466;11.066;2023-04-19T14:52:01;25.40;76.50
23347;DHT22;36852;45.466;11.066;2023-04-19T14:54:30;25.80;73.50
23347;DHT22;36852;45.466;11.066;2023-04-19T14:56:58;26.20;72.50
23347;DHT22;36852;45.466;11.066;2023-04-19T14:59:28;26.50;68.70
23347;DHT22;36852;45.466;11.066;2023-04-19T15:01:56;26.70;68.60
23347;DHT22;36852;45.466;11.066;2023-04-19T15:04:24;26.90;68.00
23347;DHT22;36852;45.466;11.066;2023-04-19T15:06:52;27.00;67.20
23347;DHT22;36852;45.466;11.066;2023-04-19T15:09:20;27.00;64.10
23347;DHT22;36852;45.466;11.066;2023-04-19T15:11:51;27.00;63.60
23347;DHT22;36852;45.466;11.066;2023-04-19T15:14:19;27.00;65.00
23347;DHT22;36852;45.466;11.066;2023-04-19T15:16:47;26.90;64.40
23347;DHT22;36852;45.466;11.066;2023-04-19T15:19:15;26.90;64.90
23347;DHT22;36852;45.466;11.066;2023-04-19T15:21:43;27.00;65.50
23347;DHT22;36852;45.466;11.066;2023-04-19T15:24:11;27.10;64.10
23347;DHT22;36852;45.466;11.066;2023-04-19T15:26:43;27.00;61.90
23347;DHT22;36852;45.466;11.066;2023-04-19T15:29:11;26.80;61.70
23347;DHT22;36852;45.466;11.066;2023-04-19T15:31:39;26.50;63.50
23347;DHT22;36852;45.466;11.066;2023-04-19T15:34:07;26.30;63.30
23347;DHT22;36852;45.466;11.066;2023-04-19T15:36:35;26.00;63.50
23347;DHT22;36852;45.466;11.066;2023-04-19T15:39:03;25.70;64.00
23347;DHT22;36852;45.466;11.066;2023-04-19T15:41:31;25.40;65.40
23347;DHT22;36852;45.466;11.066;2023-04-19T15:43:59;25.20;66.80
23347;DHT22;36852;45.466;11.066;2023-04-19T15:46:27;24.90;66.50
23347;DHT22;36852;45.466;11.066;2023-04-19T15:48:55;24.60;66.40
23347;DHT22;36852;45.466;11.066;2023-04-19T15:51:24;24.40;67.20